Time;durP1;ratioP1;P1;durP2;ratioP2;P2;SDS_P1;SDS_P2;PMS_P1;PMS_P2;Temp;Humidity;BMP_temperature;BMP_pressure;BME280_temperature;BME280_humidity;BME280_pressure;Samples;Min_cycle;Max_cycle;Signal;HPM_P1;HPM_P2
2021/12/24 00:01:14;;;;;;;;;;;17.10;99.90;;;;;;5036665;28;1010;-56
2021/12/24 00:03:40;;;;;;;;;;;17.10;99.90;;;;;;5069325;28;915;-55
2021/12/24 00:06:09;;;;;;;;;;;17.10;99.90;;;;;;5069188;28;922;-55
2021/12/24 00:08:35;;;;;;;;;;;17.00;99.90;;;;;;5037713;28;908;-56
2021/12/24 00:11:02;;;;;;;;;;;17.00;99.90;;;;;;5036984;28;1187;-56
2021/12/24 00:13:30;;;;;;;;;;;16.90;99.90;;;;;;5037459;28;844;-55
2021/12/24 00:16:09;;;;;;;;;;;16.90;99.90;;;;;;5052055;28;813;-55
2021/12/24 00:18:50;;;;;;;;;;;16.80;99.90;;;;;;5037055;28;1910;-56
2021/12/24 00:35:34;;;;;;;;;;;16.60;99.90;;;;;;5055512;28;832;-55
2021/12/24 00:38:03;;;;;;;;;;;16.60;99.90;;;;;;5017109;28;1895;-55
2021/12/24 00:40:34;;;;;;;;;;;16.50;99.90;;;;;;5043360;28;845;-56
2021/12/24 00:43:01;;;;;;;;;;;16.30;99.90;;;;;;5036363;28;837;-55
2021/12/24 00:45:29;;;;;;;;;;;16.10;99.90;;;;;;5036217;28;797;-56
2021/12/24 00:47:58;;;;;;;;;;;16.20;99.90;;;;;;5036359;28;864;-56
2021/12/24 00:50:31;;;;;;;;;;;16.20;99.90;;;;;;5036922;28;910;-56
2021/12/24 00:55:02;;;;;;;;;;;16.30;99.90;;;;;;5051977;28;1016;-56
2021/12/24 00:55:52;;;;;;;;;;;16.30;99.90;;;;;;5036382;28;1289;-56
2021/12/24 00:58:21;;;;;;;;;;;16.30;99.90;;;;;;5037886;28;1902;-55
2021/12/24 01:00:49;;;;;;;;;;;16.30;99.90;;;;;;5036801;28;889;-56
2021/12/24 01:03:16;;;;;;;;;;;16.30;99.90;;;;;;5036886;28;892;-56
2021/12/24 01:05:43;;;;;;;;;;;16.20;99.90;;;;;;5054418;28;937;-56
2021/12/24 01:11:08;;;;;;;;;;;16.20;99.90;;;;;;5075117;28;1709;-55
2021/12/24 01:13:33;;;;;;;;;;;16.20;99.90;;;;;;5075869;28;1083;-55
2021/12/24 01:16:05;;;;;;;;;;;16.20;99.90;;;;;;5075569;28;841;-55
2021/12/24 01:19:21;;;;;;;;;;;16.20;99.90;;;;;;5074027;28;1985;-55
2021/12/24 01:21:35;;;;;;;;;;;16.10;99.90;;;;;;5064964;28;1495;-55
2021/12/24 01:24:09;;;;;;;;;;;16.10;99.90;;;;;;5073784;28;1156;-55
2021/12/24 01:26:43;;;;;;;;;;;16.10;99.90;;;;;;5075615;28;855;-55
2021/12/24 01:42:47;;;;;;;;;;;16.00;99.90;;;;;;5073202;28;1213;-56
2021/12/24 01:45:13;;;;;;;;;;;16.00;99.90;;;;;;5074329;28;908;-55
2021/12/24 01:47:39;;;;;;;;;;;15.70;99.90;;;;;;5075364;28;860;-55
2021/12/24 01:50:05;;;;;;;;;;;15.60;99.90;;;;;;5075258;28;895;-55
2021/12/24 01:52:32;;;;;;;;;;;15.40;99.90;;;;;;5075551;28;801;-56
2021/12/24 01:54:58;;;;;;;;;;;15.50;99.90;;;;;;5073935;28;877;-56
2021/12/24 01:57:24;;;;;;;;;;;15.60;99.90;;;;;;5074645;28;1906;-55
2021/12/24 01:59:50;;;;;;;;;;;15.70;99.90;;;;;;5074761;28;845;-56
2021/12/24 02:02:16;;;;;;;;;;;15.70;99.90;;;;;;5075447;28;892;-56
2021/12/24 02:04:42;;;;;;;;;;;15.70;99.90;;;;;;5077109;28;1097;-56
2021/12/24 02:07:10;;;;;;;;;;;15.80;99.90;;;;;;5078852;28;927;-55
2021/12/24 02:09:36;;;;;;;;;;;15.80;99.90;;;;;;5078166;28;1127;-56
2021/12/24 02:12:09;;;;;;;;;;;15.70;99.90;;;;;;5078807;28;920;-56
2021/12/24 02:14:38;;;;;;;;;;;15.70;99.90;;;;;;5055464;28;939;-56
2021/12/24 02:17:26;;;;;;;;;;;15.70;99.90;;;;;;5078755;28;1907;-56
2021/12/24 02:30:46;;;;;;;;;;;15.60;99.90;;;;;;5016993;28;787;-56
2021/12/24 02:33:12;;;;;;;;;;;15.60;99.90;;;;;;5016965;28;1103;-56
2021/12/24 02:35:40;;;;;;;;;;;15.60;99.90;;;;;;5000467;28;902;-56
2021/12/24 02:38:07;;;;;;;;;;;15.60;99.90;;;;;;5016658;28;1902;-56
2021/12/24 02:40:33;;;;;;;;;;;15.60;99.90;;;;;;5016400;28;869;-56
2021/12/24 02:43:00;;;;;;;;;;;15.50;99.90;;;;;;5016803;28;877;-56
2021/12/24 02:45:27;;;;;;;;;;;15.50;99.90;;;;;;5016383;28;962;-56
2021/12/24 02:55:58;;;;;;;;;;;15.30;99.90;;;;;;5016197;28;810;-55
2021/12/24 02:58:24;;;;;;;;;;;15.10;99.90;;;;;;5046437;28;2019;-56
2021/12/24 03:00:50;;;;;;;;;;;15.00;99.90;;;;;;5077875;28;836;-55
2021/12/24 03:03:16;;;;;;;;;;;15.10;99.90;;;;;;5077716;28;845;-55
2021/12/24 03:05:42;;;;;;;;;;;15.20;99.90;;;;;;5077827;28;916;-56
2021/12/24 03:08:08;;;;;;;;;;;15.30;99.90;;;;;;5076626;28;856;-56
2021/12/24 03:10:36;;;;;;;;;;;15.30;99.90;;;;;;5077349;28;1265;-56
2021/12/24 03:13:02;;;;;;;;;;;15.30;99.90;;;;;;5077360;28;924;-56
2021/12/24 03:15:28;;;;;;;;;;;15.30;99.90;;;;;;5077523;28;880;-56
2021/12/24 03:17:58;;;;;;;;;;;15.30;99.90;;;;;;5077546;28;1906;-56
2021/12/24 03:20:24;;;;;;;;;;;15.30;99.90;;;;;;5076776;28;848;-56
2021/12/24 03:25:16;;;;;;;;;;;15.30;99.90;;;;;;5076292;28;937;-56
2021/12/24 03:27:42;;;;;;;;;;;15.30;99.90;;;;;;5077161;28;891;-56
2021/12/24 03:30:08;;;;;;;;;;;15.30;99.90;;;;;;5077268;28;929;-56
2021/12/24 03:32:36;;;;;;;;;;;15.30;99.90;;;;;;5071453;28;828;-56
2021/12/24 03:35:02;;;;;;;;;;;15.30;99.90;;;;;;5077085;28;1052;-56
2021/12/24 03:37:29;;;;;;;;;;;15.30;99.90;;;;;;5075904;28;1930;-56
2021/12/24 03:39:55;;;;;;;;;;;15.20;99.90;;;;;;5076648;28;821;-56
2021/12/24 03:42:21;;;;;;;;;;;15.20;99.90;;;;;;5076905;28;861;-56
2021/12/24 03:44:56;;;;;;;;;;;15.20;99.90;;;;;;5076997;28;939;-56
2021/12/24 03:47:23;;;;;;;;;;;15.20;99.90;;;;;;5076786;28;829;-56
2021/12/24 03:50:03;;;;;;;;;;;15.20;99.90;;;;;;5076792;28;938;-59
2021/12/24 03:53:04;;;;;;;;;;;15.20;99.90;;;;;;5072117;28;1405;-56
2021/12/24 03:55:15;;;;;;;;;;;15.20;99.90;;;;;;5075911;28;1441;-56
2021/12/24 03:57:41;;;;;;;;;;;15.20;99.90;;;;;;5076538;28;1902;-56
2021/12/24 04:00:07;;;;;;;;;;;15.20;99.90;;;;;;5076468;28;884;-56
2021/12/24 04:02:33;;;;;;;;;;;15.10;99.90;;;;;;5076554;28;836;-56
2021/12/24 04:05:00;;;;;;;;;;;14.90;99.90;;;;;;5076675;28;863;-55
2021/12/24 04:07:28;;;;;;;;;;;14.70;99.90;;;;;;5076704;28;797;-56
2021/12/24 04:10:03;;;;;;;;;;;14.70;99.90;;;;;;5075893;28;1079;-56
2021/12/24 04:12:29;;;;;;;;;;;14.80;99.90;;;;;;5075737;28;1404;-56
2021/12/24 04:14:56;;;;;;;;;;;14.90;99.90;;;;;;5076361;28;884;-56
2021/12/24 04:17:23;;;;;;;;;;;15.00;99.90;;;;;;5076112;28;1906;-56
2021/12/24 04:25:18;;;;;;;;;;;15.10;99.90;;;;;;5076155;28;829;-56
2021/12/24 04:27:45;;;;;;;;;;;15.00;99.90;;;;;;5076028;28;947;-56
2021/12/24 04:30:19;;;;;;;;;;;15.00;99.90;;;;;;5091538;28;893;-56
2021/12/24 04:35:39;;;;;;;;;;;15.00;99.90;;;;;;5072949;28;1479;-56
2021/12/24 04:38:29;;;;;;;;;;;15.00;99.90;;;;;;5075806;28;1878;-56
2021/12/24 04:52:04;;;;;;;;;;;15.00;99.90;;;;;;5067534;28;1189;-56
2021/12/24 05:05:23;;;;;;;;;;;14.90;99.90;;;;;;5076091;28;782;-56
2021/12/24 05:10:22;;;;;;;;;;;14.80;99.90;;;;;;5075344;28;1110;-56
2021/12/24 05:12:48;;;;;;;;;;;14.70;99.90;;;;;;5075617;28;1233;-56
2021/12/24 05:15:17;;;;;;;;;;;14.50;99.90;;;;;;5075786;28;781;-56
2021/12/24 05:23:00;;;;;;;;;;;14.60;99.90;;;;;;5075620;28;817;-56
2021/12/24 05:25:26;;;;;;;;;;;14.70;99.90;;;;;;5075303;28;880;-56
2021/12/24 05:27:55;;;;;;;;;;;14.70;99.90;;;;;;5075794;28;872;-56
2021/12/24 05:30:22;;;;;;;;;;;14.80;99.90;;;;;;5075533;28;848;-56
2021/12/24 05:32:51;;;;;;;;;;;14.80;99.90;;;;;;5075593;28;793;-56
2021/12/24 05:35:17;;;;;;;;;;;14.80;99.90;;;;;;5075495;28;883;-56
2021/12/24 05:37:43;;;;;;;;;;;14.80;99.90;;;;;;5075693;28;1959;-56
2021/12/24 05:40:09;;;;;;;;;;;14.70;99.90;;;;;;5078868;28;906;-56
2021/12/24 05:42:35;;;;;;;;;;;14.80;99.90;;;;;;5079479;28;821;-56
2021/12/24 05:45:04;;;;;;;;;;;14.70;99.90;;;;;;5078929;28;973;-56
2021/12/24 05:47:30;;;;;;;;;;;14.70;99.90;;;;;;5078405;28;962;-56
2021/12/24 05:49:58;;;;;;;;;;;14.70;99.90;;;;;;5079274;28;1162;-56
2021/12/24 05:52:24;;;;;;;;;;;14.70;99.90;;;;;;5078246;28;845;-56
2021/12/24 05:54:50;;;;;;;;;;;14.70;99.90;;;;;;5078830;28;852;-56
2021/12/24 05:57:16;;;;;;;;;;;14.70;99.90;;;;;;5060901;28;882;-56
2021/12/24 05:59:42;;;;;;;;;;;14.70;99.90;;;;;;5076859;28;2003;-56
2021/12/24 06:02:08;;;;;;;;;;;14.70;99.90;;;;;;5077930;28;1269;-56
2021/12/24 06:04:35;;;;;;;;;;;14.80;99.90;;;;;;5078840;28;957;-56
2021/12/24 06:07:01;;;;;;;;;;;14.80;99.90;;;;;;5078759;28;904;-56
2021/12/24 06:09:27;;;;;;;;;;;14.90;99.90;;;;;;5078342;28;1052;-56
2021/12/24 06:11:54;;;;;;;;;;;15.00;99.90;;;;;;5078551;28;857;-56
2021/12/24 06:14:20;;;;;;;;;;;15.10;99.90;;;;;;5078460;28;1519;-56
2021/12/24 06:16:50;;;;;;;;;;;15.10;99.90;;;;;;5078837;28;804;-56
2021/12/24 06:19:16;;;;;;;;;;;15.10;99.90;;;;;;5078737;28;2030;-56
2021/12/24 06:21:43;;;;;;;;;;;15.00;99.90;;;;;;5078725;28;924;-56
2021/12/24 06:24:12;;;;;;;;;;;15.00;99.90;;;;;;5078639;28;970;-56
2021/12/24 06:26:38;;;;;;;;;;;15.10;99.90;;;;;;5078456;28;830;-56
2021/12/24 06:29:04;;;;;;;;;;;15.30;99.90;;;;;;5078467;28;1112;-56
2021/12/24 06:31:30;;;;;;;;;;;15.50;99.90;;;;;;5078256;28;900;-56
2021/12/24 06:33:57;;;;;;;;;;;15.70;99.90;;;;;;5078217;28;840;-56
2021/12/24 06:36:23;;;;;;;;;;;15.80;99.90;;;;;;5076555;28;1212;-56
2021/12/24 06:38:51;;;;;;;;;;;15.90;99.90;;;;;;5078368;28;1902;-56
2021/12/24 06:41:19;;;;;;;;;;;16.00;99.90;;;;;;5078478;28;905;-56
2021/12/24 06:43:44;;;;;;;;;;;16.10;99.90;;;;;;5076914;28;1143;-56
2021/12/24 06:46:12;;;;;;;;;;;16.20;99.90;;;;;;5078231;28;906;-56
2021/12/24 06:48:40;;;;;;;;;;;16.20;99.90;;;;;;5060779;28;953;-56
2021/12/24 06:51:06;;;;;;;;;;;16.30;99.90;;;;;;5077722;28;941;-56
2021/12/24 06:53:32;;;;;;;;;;;16.40;99.90;;;;;;5078179;28;797;-56
2021/12/24 06:55:59;;;;;;;;;;;16.40;99.90;;;;;;5078083;28;889;-56
2021/12/24 06:58:27;;;;;;;;;;;16.40;99.90;;;;;;5073108;28;1973;-56
2021/12/24 07:00:54;;;;;;;;;;;16.50;99.90;;;;;;5078112;28;876;-56
2021/12/24 07:03:21;;;;;;;;;;;16.50;99.90;;;;;;5077907;28;1146;-56
2021/12/24 07:05:47;;;;;;;;;;;16.60;99.90;;;;;;5077795;28;999;-56
2021/12/24 07:08:13;;;;;;;;;;;16.60;99.90;;;;;;5077484;28;1182;-55
2021/12/24 07:10:41;;;;;;;;;;;16.60;99.90;;;;;;5076757;28;1120;-56
2021/12/24 07:13:08;;;;;;;;;;;16.70;99.90;;;;;;5076358;28;1048;-55
2021/12/24 07:15:35;;;;;;;;;;;16.70;99.90;;;;;;5077058;28;1099;-55
2021/12/24 07:18:01;;;;;;;;;;;16.70;99.90;;;;;;5077038;28;1982;-55
2021/12/24 07:20:27;;;;;;;;;;;16.70;99.90;;;;;;5075313;28;1373;-55
2021/12/24 07:22:54;;;;;;;;;;;16.80;99.90;;;;;;5076957;28;1074;-55
2021/12/24 07:25:21;;;;;;;;;;;16.70;99.90;;;;;;5077125;28;1210;-55
2021/12/24 07:27:47;;;;;;;;;;;16.80;99.90;;;;;;5077138;28;1040;-55
2021/12/24 07:30:14;;;;;;;;;;;16.80;99.90;;;;;;5076951;28;1043;-55
2021/12/24 07:32:41;;;;;;;;;;;16.80;99.90;;;;;;5077101;28;1068;-55
2021/12/24 07:35:12;;;;;;;;;;;16.80;99.90;;;;;;5092121;28;1127;-55
2021/12/24 07:37:39;;;;;;;;;;;16.80;99.90;;;;;;5076900;28;1895;-55
2021/12/24 07:40:06;;;;;;;;;;;16.80;99.90;;;;;;5092350;28;1325;-55
2021/12/24 07:42:32;;;;;;;;;;;16.80;99.90;;;;;;5076499;28;1107;-55
2021/12/24 07:44:58;;;;;;;;;;;16.80;99.90;;;;;;5052142;28;1196;-55
2021/12/24 07:47:28;;;;;;;;;;;16.80;99.90;;;;;;5054511;28;1195;-55
2021/12/24 07:50:01;;;;;;;;;;;16.80;99.90;;;;;;5054866;28;1073;-55
2021/12/24 07:52:28;;;;;;;;;;;16.90;99.90;;;;;;5054772;28;1080;-56
2021/12/24 07:54:54;;;;;;;;;;;16.80;99.90;;;;;;5036776;28;1373;-55
2021/12/24 07:57:22;;;;;;;;;;;16.70;99.90;;;;;;5054522;28;1128;-56
2021/12/24 07:59:49;;;;;;;;;;;16.50;99.90;;;;;;5054082;28;1967;-56
2021/12/24 08:02:17;;;;;;;;;;;16.60;99.90;;;;;;5053574;28;1112;-55
2021/12/24 08:04:44;;;;;;;;;;;16.70;99.90;;;;;;5054478;28;1369;-55
2021/12/24 08:07:12;;;;;;;;;;;16.80;99.90;;;;;;5054146;28;1077;-55
2021/12/24 08:09:39;;;;;;;;;;;16.90;99.90;;;;;;5054260;28;1408;-55
2021/12/24 08:12:06;;;;;;;;;;;16.90;99.90;;;;;;5037211;28;1339;-56
2021/12/24 08:14:32;;;;;;;;;;;16.90;99.90;;;;;;5054524;28;1158;-56
2021/12/24 08:16:59;;;;;;;;;;;17.00;99.90;;;;;;5074106;28;1267;-56
2021/12/24 08:19:25;;;;;;;;;;;17.00;99.90;;;;;;5075836;28;1909;-56
2021/12/24 08:21:51;;;;;;;;;;;17.00;99.90;;;;;;5076201;28;1015;-55
2021/12/24 08:24:17;;;;;;;;;;;17.00;99.90;;;;;;5076944;28;813;-56
2021/12/24 08:26:44;;;;;;;;;;;17.00;99.90;;;;;;5075738;28;1258;-56
2021/12/24 08:29:11;;;;;;;;;;;17.00;99.90;;;;;;5075638;28;1579;-56
2021/12/24 08:31:39;;;;;;;;;;;17.00;99.90;;;;;;5058056;28;928;-56
2021/12/24 08:34:06;;;;;;;;;;;17.00;99.90;;;;;;5076088;28;871;-56
2021/12/24 08:36:33;;;;;;;;;;;17.00;99.90;;;;;;5076315;28;849;-56
2021/12/24 08:38:59;;;;;;;;;;;17.00;99.90;;;;;;5076107;28;1894;-56
2021/12/24 08:41:25;;;;;;;;;;;17.00;99.90;;;;;;5075832;28;844;-55
2021/12/24 08:43:51;;;;;;;;;;;16.90;99.90;;;;;;5075931;28;929;-56
2021/12/24 08:46:18;;;;;;;;;;;17.00;99.90;;;;;;5075496;28;1236;-55
2021/12/24 08:48:44;;;;;;;;;;;17.00;99.90;;;;;;5075940;28;874;-55
2021/12/24 08:51:11;;;;;;;;;;;17.00;99.90;;;;;;5076140;28;835;-55
2021/12/24 08:53:40;;;;;;;;;;;17.00;99.90;;;;;;5075605;28;1011;-55
2021/12/24 08:56:06;;;;;;;;;;;17.00;99.90;;;;;;5075685;28;1088;-55
2021/12/24 08:58:34;;;;;;;;;;;17.40;99.90;;;;;;5075513;28;1902;-56
2021/12/24 09:01:00;;;;;;;;;;;18.30;99.90;;;;;;5074694;28;1214;-56
2021/12/24 09:03:26;;;;;;;;;;;19.20;99.90;;;;;;5075151;28;928;-56
2021/12/24 09:05:51;;;;;;;;;;;19.80;99.90;;;;;;5075732;28;853;-56
2021/12/24 09:08:17;;;;;;;;;;;20.20;99.90;;;;;;5075579;28;1213;-56
2021/12/24 09:10:44;;;;;;;;;;;20.50;99.90;;;;;;5075369;28;1156;-56
2021/12/24 09:13:10;;;;;;;;;;;20.80;99.90;;;;;;5078219;28;899;-56
2021/12/24 09:15:37;;;;;;;;;;;20.90;99.90;;;;;;5079656;28;880;-56
2021/12/24 09:18:04;;;;;;;;;;;20.70;99.90;;;;;;5079675;28;1886;-56
2021/12/24 09:20:35;;;;;;;;;;;20.60;99.90;;;;;;5076033;28;1015;-56
2021/12/24 09:23:02;;;;;;;;;;;20.60;99.90;;;;;;5076009;28;1028;-56
2021/12/24 09:25:29;;;;;;;;;;;20.70;99.90;;;;;;5079523;28;836;-55
2021/12/24 09:27:55;;;;;;;;;;;20.70;99.90;;;;;;5079853;28;938;-55
2021/12/24 09:30:22;;;;;;;;;;;20.70;99.90;;;;;;5079350;28;963;-55
2021/12/24 09:32:48;;;;;;;;;;;20.60;99.90;;;;;;5079770;28;878;-55
2021/12/24 09:35:14;;;;;;;;;;;20.60;99.90;;;;;;5079526;28;1008;-55
2021/12/24 09:37:41;;;;;;;;;;;20.60;99.90;;;;;;5078540;28;1126;-55
2021/12/24 09:40:08;;;;;;;;;;;20.70;99.90;;;;;;5079224;28;1906;-55
2021/12/24 09:42:34;;;;;;;;;;;20.70;99.90;;;;;;5078839;28;1711;-56
2021/12/24 09:45:02;;;;;;;;;;;20.50;99.90;;;;;;5077734;28;1134;-56
2021/12/24 09:47:28;;;;;;;;;;;20.00;99.90;;;;;;5078149;28;1309;-56
2021/12/24 09:49:54;;;;;;;;;;;19.50;99.90;;;;;;5076522;28;940;-55
2021/12/24 09:52:20;;;;;;;;;;;19.30;99.90;;;;;;5078240;28;801;-55
2021/12/24 09:54:47;;;;;;;;;;;19.10;99.90;;;;;;5078849;28;916;-56
2021/12/24 09:57:14;;;;;;;;;;;19.00;99.90;;;;;;5078527;28;897;-57
2021/12/24 09:59:42;;;;;;;;;;;18.90;99.90;;;;;;5078391;28;1906;-55
2021/12/24 10:02:14;;;;;;;;;;;18.80;99.90;;;;;;5077403;28;758;-56
2021/12/24 10:04:41;;;;;;;;;;;18.80;99.90;;;;;;5077325;28;972;-55
2021/12/24 10:07:09;;;;;;;;;;;18.70;99.90;;;;;;5079034;28;900;-55
2021/12/24 10:09:37;;;;;;;;;;;18.70;99.90;;;;;;5078550;28;1056;-56
2021/12/24 10:12:07;;;;;;;;;;;18.60;99.90;;;;;;5078608;28;943;-55
2021/12/24 10:14:36;;;;;;;;;;;18.60;99.90;;;;;;5078406;28;947;-55
2021/12/24 10:17:02;;;;;;;;;;;18.50;99.90;;;;;;5078307;28;1228;-55
2021/12/24 10:19:28;;;;;;;;;;;18.50;99.90;;;;;;5078505;28;1911;-55
2021/12/24 10:21:59;;;;;;;;;;;18.50;99.90;;;;;;5078755;28;925;-56
2021/12/24 10:24:26;;;;;;;;;;;18.40;99.90;;;;;;5077634;28;845;-55
2021/12/24 10:26:55;;;;;;;;;;;18.40;99.90;;;;;;5078320;28;849;-55
2021/12/24 10:29:32;;;;;;;;;;;18.40;99.90;;;;;;5077324;28;1060;-57
2021/12/24 10:31:59;;;;;;;;;;;18.30;99.90;;;;;;5078398;28;874;-55
2021/12/24 10:34:26;;;;;;;;;;;18.20;99.90;;;;;;5076812;28;1265;-56
2021/12/24 10:36:57;;;;;;;;;;;18.20;99.90;;;;;;5078263;28;837;-57
2021/12/24 10:39:25;;;;;;;;;;;18.20;99.90;;;;;;5078194;28;1910;-55
2021/12/24 10:41:53;;;;;;;;;;;18.20;99.90;;;;;;5078056;28;892;-55
2021/12/24 10:44:20;;;;;;;;;;;18.10;99.90;;;;;;5078051;28;793;-55
2021/12/24 10:47:01;;;;;;;;;;;18.10;99.90;;;;;;5078114;28;840;-55
2021/12/24 10:54:55;;;;;;;;;;;18.10;99.90;;;;;;5077997;28;841;-55
2021/12/24 10:57:27;;;;;;;;;;;18.00;99.90;;;;;;5078067;28;944;-57
2021/12/24 10:59:56;;;;;;;;;;;18.00;99.90;;;;;;5077902;28;1906;-57
2021/12/24 11:02:26;;;;;;;;;;;18.00;99.90;;;;;;5077425;28;874;-57
2021/12/24 11:04:54;;;;;;;;;;;18.00;99.90;;;;;;5077688;28;1080;-55
2021/12/24 11:07:34;;;;;;;;;;;18.00;99.90;;;;;;5077676;28;885;-56
2021/12/24 11:10:11;;;;;;;;;;;18.00;99.90;;;;;;5077642;28;1315;-56
2021/12/24 11:12:42;;;;;;;;;;;18.00;99.90;;;;;;5076056;28;906;-57
2021/12/24 11:15:17;;;;;;;;;;;17.90;99.90;;;;;;5077444;28;856;-55
2021/12/24 11:17:43;;;;;;;;;;;17.90;99.90;;;;;;5077754;28;927;-55
2021/12/24 11:20:09;;;;;;;;;;;17.80;99.90;;;;;;5077365;28;1961;-55
2021/12/24 11:22:54;;;;;;;;;;;17.80;99.90;;;;;;5077680;28;887;-56
2021/12/24 11:25:21;;;;;;;;;;;17.80;99.90;;;;;;5076197;28;1035;-55
2021/12/24 11:27:47;;;;;;;;;;;17.80;99.90;;;;;;5077197;28;805;-56
2021/12/24 11:30:14;;;;;;;;;;;17.80;99.90;;;;;;5076170;28;889;-56
2021/12/24 11:32:40;;;;;;;;;;;17.80;99.90;;;;;;5077173;28;876;-57
2021/12/24 11:35:06;;;;;;;;;;;17.80;99.90;;;;;;5075937;28;951;-57
2021/12/24 11:37:33;;;;;;;;;;;17.80;99.90;;;;;;5076216;28;887;-56
2021/12/24 11:40:01;;;;;;;;;;;17.80;99.90;;;;;;5076647;28;1961;-57
2021/12/24 11:42:29;;;;;;;;;;;17.80;99.90;;;;;;5077129;28;841;-56
2021/12/24 11:44:55;;;;;;;;;;;17.90;99.90;;;;;;5076943;28;868;-55
2021/12/24 11:47:22;;;;;;;;;;;17.90;99.90;;;;;;5077238;28;1048;-55
2021/12/24 11:49:48;;;;;;;;;;;17.90;99.90;;;;;;5077086;28;892;-57
2021/12/24 11:52:14;;;;;;;;;;;18.00;99.90;;;;;;5075873;28;1312;-57
2021/12/24 11:54:40;;;;;;;;;;;18.00;99.90;;;;;;5076764;28;813;-55
2021/12/24 11:57:16;;;;;;;;;;;18.00;99.90;;;;;;5076509;28;829;-55
2021/12/24 11:59:43;;;;;;;;;;;18.10;99.90;;;;;;5076019;28;1901;-56
2021/12/24 12:02:09;;;;;;;;;;;18.10;99.90;;;;;;5076498;28;1483;-56
2021/12/24 12:04:35;;;;;;;;;;;18.10;99.90;;;;;;5076176;28;1097;-57
2021/12/24 12:07:16;;;;;;;;;;;18.10;99.90;;;;;;5076441;28;814;-57
2021/12/24 12:09:44;;;;;;;;;;;18.00;99.90;;;;;;5076219;28;1052;-56
2021/12/24 12:12:14;;;;;;;;;;;18.00;99.90;;;;;;5075395;28;971;-56
2021/12/24 12:14:41;;;;;;;;;;;18.00;99.90;;;;;;5076370;28;1060;-55
2021/12/24 12:17:08;;;;;;;;;;;18.00;99.90;;;;;;5076429;28;824;-56
2021/12/24 12:22:13;;;;;;;;;;;18.00;99.90;;;;;;5076281;28;896;-55
2021/12/24 12:24:57;;;;;;;;;;;18.00;99.90;;;;;;5075879;28;995;-55
2021/12/24 12:27:35;;;;;;;;;;;18.00;99.90;;;;;;5075516;28;1038;-56
2021/12/24 12:30:18;;;;;;;;;;;18.00;99.90;;;;;;5076186;28;883;-55
2021/12/24 12:32:45;;;;;;;;;;;18.00;99.90;;;;;;5076308;28;974;-55
2021/12/24 12:35:12;;;;;;;;;;;18.00;99.90;;;;;;5073698;28;1301;-56
2021/12/24 12:37:44;;;;;;;;;;;18.00;99.90;;;;;;5074599;28;1365;-57
2021/12/24 12:40:13;;;;;;;;;;;18.00;99.90;;;;;;5083755;28;1906;-56
2021/12/24 12:43:05;;;;;;;;;;;17.90;99.90;;;;;;5075393;28;848;-56
2021/12/24 12:45:35;;;;;;;;;;;17.90;99.90;;;;;;5070819;28;1247;-56
2021/12/24 12:48:03;;;;;;;;;;;17.90;99.90;;;;;;5075643;28;836;-56
2021/12/24 12:50:29;;;;;;;;;;;18.00;99.90;;;;;;5075942;28;844;-56
2021/12/24 12:53:14;;;;;;;;;;;17.90;99.90;;;;;;5075906;28;824;-57
2021/12/24 12:55:40;;;;;;;;;;;18.00;99.90;;;;;;5075417;28;1035;-56
2021/12/24 12:58:24;;;;;;;;;;;18.10;99.90;;;;;;5075513;28;1193;-57
2021/12/24 13:01:10;;;;;;;;;;;18.10;99.90;;;;;;5075772;28;1910;-56
2021/12/24 13:03:56;;;;;;;;;;;18.10;99.90;;;;;;5074738;28;991;-56
2021/12/24 13:06:41;;;;;;;;;;;18.10;99.90;;;;;;5081149;28;1455;-57
2021/12/24 13:09:09;;;;;;;;;;;18.20;99.90;;;;;;5075032;28;1206;-56
2021/12/24 13:11:36;;;;;;;;;;;18.20;99.90;;;;;;5075000;28;758;-56
2021/12/24 13:14:02;;;;;;;;;;;18.20;99.90;;;;;;5075073;28;869;-56
2021/12/24 13:16:39;;;;;;;;;;;18.20;99.90;;;;;;5075066;28;1034;-56
2021/12/24 13:24:50;;;;;;;;;;;17.90;99.90;;;;;;5075552;28;992;-57
2021/12/24 13:27:17;;;;;;;;;;;18.00;99.90;;;;;;5074708;28;1013;-56
2021/12/24 13:29:43;;;;;;;;;;;18.10;99.90;;;;;;5075486;28;1067;-56
2021/12/24 13:32:09;;;;;;;;;;;18.10;99.90;;;;;;5074593;28;1185;-56
2021/12/24 13:34:37;;;;;;;;;;;18.20;99.90;;;;;;5056317;28;1058;-57
2021/12/24 13:37:13;;;;;;;;;;;18.20;99.90;;;;;;5075780;28;904;-57
2021/12/24 13:39:46;;;;;;;;;;;18.30;99.90;;;;;;5069997;28;1910;-56
2021/12/24 13:42:14;;;;;;;;;;;18.20;99.90;;;;;;5074563;28;979;-57
2021/12/24 13:44:40;;;;;;;;;;;18.30;99.90;;;;;;5072829;28;1276;-56
2021/12/24 13:47:33;;;;;;;;;;;18.30;99.90;;;;;;5075571;28;896;-57
2021/12/24 13:55:37;;;;;;;;;;;18.30;99.90;;;;;;5071334;28;888;-57
2021/12/24 13:58:09;;;;;;;;;;;18.30;99.90;;;;;;5071569;28;1274;-55
2021/12/24 14:00:38;;;;;;;;;;;18.30;99.90;;;;;;5077676;28;1906;-57
2021/12/24 14:03:06;;;;;;;;;;;18.30;99.90;;;;;;5077841;28;798;-57
2021/12/24 14:05:32;;;;;;;;;;;18.30;99.90;;;;;;5078903;28;884;-55
2021/12/24 14:08:08;;;;;;;;;;;18.30;99.90;;;;;;5077246;28;1030;-59
2021/12/24 14:10:35;;;;;;;;;;;;;;;;;;5076292;28;1150;-47
2021/12/24 14:13:08;;;;;;;;;;;18.20;99.90;;;;;;5077584;28;952;-47
2021/12/24 14:24:03;;;;;;;;;;;18.10;99.90;;;;;;5078049;28;848;-56
2021/12/24 14:26:36;;;;;;;;;;;18.10;99.90;;;;;;5077578;28;1046;-56
2021/12/24 14:29:05;;;;;;;;;;;18.10;99.90;;;;;;5071197;28;880;-55
2021/12/24 14:31:46;;;;;;;;;;;18.10;99.90;;;;;;5078232;28;1062;-56
2021/12/24 14:34:26;;;;;;;;;;;18.00;99.90;;;;;;5076884;28;1042;-55
2021/12/24 14:37:00;;;;;;;;;;;18.00;99.90;;;;;;5078305;28;970;-55
2021/12/24 14:39:34;;;;;;;;;;;18.00;99.90;;;;;;5077652;28;1906;-56
2021/12/24 14:42:10;;;;;;;;;;;18.00;99.90;;;;;;5075221;28;1072;-56
2021/12/24 14:44:36;;;;;;;;;;;18.00;99.90;;;;;;5058937;28;987;-56
2021/12/24 14:47:05;;;;;;;;;;;17.90;99.90;;;;;;5077351;28;844;-55
2021/12/24 14:49:31;;;;;;;;;;;17.90;99.90;;;;;;5077195;28;882;-55
2021/12/24 14:52:19;;;;;;;;;;;17.80;99.90;;;;;;5078254;28;1071;-55
2021/12/24 14:55:04;;;;;;;;;;;17.80;99.90;;;;;;5077103;28;872;-55
2021/12/24 14:57:32;;;;;;;;;;;17.80;99.90;;;;;;5077385;28;872;-56
2021/12/24 15:00:09;;;;;;;;;;;17.80;99.90;;;;;;5076129;28;1906;-56
2021/12/24 15:02:40;;;;;;;;;;;17.80;99.90;;;;;;5059690;28;941;-56
2021/12/24 15:05:06;;;;;;;;;;;17.70;99.90;;;;;;5077156;28;975;-56
2021/12/24 15:07:32;;;;;;;;;;;17.70;99.90;;;;;;5077703;28;808;-55
2021/12/24 15:10:09;;;;;;;;;;;17.60;99.90;;;;;;5077164;28;1001;-55
2021/12/24 15:12:47;;;;;;;;;;;17.60;99.90;;;;;;5077464;28;947;-55
2021/12/24 15:15:15;;;;;;;;;;;17.60;99.90;;;;;;5077041;28;857;-55
2021/12/24 15:17:53;;;;;;;;;;;17.60;99.90;;;;;;5077510;28;768;-55
2021/12/24 15:20:20;;;;;;;;;;;17.50;99.90;;;;;;5077053;28;1971;-55
2021/12/24 15:22:47;;;;;;;;;;;17.50;99.90;;;;;;5076766;28;925;-55
2021/12/24 15:25:14;;;;;;;;;;;17.50;99.90;;;;;;5077176;28;844;-55
2021/12/24 15:27:42;;;;;;;;;;;17.50;99.90;;;;;;5076129;28;1297;-55
2021/12/24 15:30:12;;;;;;;;;;;17.40;99.90;;;;;;5076778;28;839;-55
2021/12/24 15:32:39;;;;;;;;;;;17.40;99.90;;;;;;5076660;28;844;-55
2021/12/24 15:35:05;;;;;;;;;;;17.40;99.90;;;;;;5077044;28;1041;-55
2021/12/24 15:37:31;;;;;;;;;;;17.30;99.90;;;;;;5077022;28;893;-55
2021/12/24 15:39:57;;;;;;;;;;;17.30;99.90;;;;;;5076949;28;1902;-55
2021/12/24 15:42:27;;;;;;;;;;;17.30;99.90;;;;;;5076850;28;752;-55
2021/12/24 15:44:53;;;;;;;;;;;17.20;99.90;;;;;;5076454;28;816;-55
2021/12/24 15:47:20;;;;;;;;;;;17.20;99.90;;;;;;5075484;28;945;-55
2021/12/24 15:49:47;;;;;;;;;;;17.20;99.90;;;;;;5076318;28;893;-55
2021/12/24 15:52:15;;;;;;;;;;;17.10;99.90;;;;;;5076981;28;928;-55
2021/12/24 15:54:43;;;;;;;;;;;17.10;99.90;;;;;;5075270;28;864;-55
2021/12/24 15:57:11;;;;;;;;;;;17.10;99.90;;;;;;5076525;28;829;-55
2021/12/24 15:59:37;;;;;;;;;;;17.10;99.90;;;;;;5075477;28;1962;-55
2021/12/24 16:02:04;;;;;;;;;;;17.00;99.90;;;;;;5076493;28;1336;-55
2021/12/24 16:04:33;;;;;;;;;;;17.00;99.90;;;;;;5076496;28;1007;-55
2021/12/24 16:07:01;;;;;;;;;;;17.00;99.90;;;;;;5070556;28;807;-55
2021/12/24 16:09:27;;;;;;;;;;;17.00;99.90;;;;;;5076257;28;1217;-55
2021/12/24 16:11:53;;;;;;;;;;;16.90;99.90;;;;;;5076308;28;793;-55
2021/12/24 16:14:21;;;;;;;;;;;16.90;99.90;;;;;;5076658;28;875;-55
2021/12/24 16:16:49;;;;;;;;;;;16.80;99.90;;;;;;5076685;28;845;-55
2021/12/24 16:19:16;;;;;;;;;;;16.80;99.90;;;;;;5076578;28;1965;-55
2021/12/24 16:21:45;;;;;;;;;;;16.80;99.90;;;;;;5074892;28;1001;-55
2021/12/24 16:24:11;;;;;;;;;;;16.80;99.90;;;;;;5074139;28;884;-55
2021/12/24 16:26:39;;;;;;;;;;;16.70;99.90;;;;;;5075294;28;802;-46
2021/12/24 16:29:08;;;;;;;;;;;16.70;99.90;;;;;;5074860;28;931;-46
2021/12/24 16:31:34;;;;;;;;;;;16.70;99.90;;;;;;5075323;28;979;-46
2021/12/24 16:34:01;;;;;;;;;;;16.70;99.90;;;;;;5076062;28;860;-55
2021/12/24 16:36:27;;;;;;;;;;;16.60;99.90;;;;;;5075220;28;1243;-56
2021/12/24 16:38:53;;;;;;;;;;;16.60;99.90;;;;;;5076033;28;872;-55
2021/12/24 16:41:20;;;;;;;;;;;16.60;99.90;;;;;;5075449;28;1926;-55
2021/12/24 16:43:48;;;;;;;;;;;16.60;99.90;;;;;;5075383;28;844;-55
2021/12/24 16:46:16;;;;;;;;;;;16.50;99.90;;;;;;5075819;28;941;-55